This demonstration page uses our WeatherBlox Daily Observations layout. Learn more.

Left ArrowRight Arrow

34.74481, -87.66753

Hourly Observations for June 27, 2020

Temp ( °F °C ) Dew Point ( °F °C ) Humidity (%) Winds ( mph kmh ) Pressure ( in mb ) Visibility ( mi km ) Precip ( " mm )
12:53 am 00:53 Partly Cloudy N/A N/A N/A SSW 5 7 N/A 9 14 0.00 0.00
1:53 am 01:53 Clear N/A N/A N/A SSW 5 7 N/A 9 14 0.00 0.00
2:53 am 02:53 Clear N/A N/A N/A Calm N/A 9 14 0.00 0.00
3:53 am 03:53 Mostly Cloudy N/A N/A N/A Calm N/A 8 13 0.00 0.00
4:53 am 04:53 Mostly Cloudy N/A N/A N/A SE 3 6 N/A 8 13 0.00 0.00
5:53 am 05:53 Mostly Cloudy N/A N/A N/A Calm N/A 8 13 0.00 0.00
6:53 am 06:53 Mostly Cloudy with Haze N/A N/A N/A VRB 6 9 N/A 6 10 0.00 0.00
7:53 am 07:53 Mostly Cloudy with Haze N/A N/A N/A Calm N/A 6 10 0.00 0.00
8:53 am 08:53 Mostly Cloudy N/A N/A N/A WSW 5 7 N/A 7 11 0.00 0.00
9:53 am 09:53 Mostly Cloudy N/A N/A N/A WSW 8 13 N/A 8 13 0.00 0.00
10:53 am 10:53 Cloudy N/A N/A N/A SSW 5 7 N/A 8 13 0.00 0.00
11:13 am 11:13 Mostly Cloudy N/A N/A N/A SW 8 13 N/A 8 13 0.00 0.00
11:53 am 11:53 Cloudy N/A N/A N/A SW 10 17 N/A 8 13 0.00 0.00
12:31 pm 12:31 Cloudy with Heavy Rain N/A N/A N/A WSW 16 26 N/A 2 3 0.07 1.78
12:39 pm 12:39 Cloudy with Strong Thunderstorms N/A N/A N/A WSW 15 24 N/A 1 1 0.22 5.59
12:45 pm 12:45 Cloudy with Strong Thunderstorms N/A N/A N/A W 32 52 N/A 0 0 0.41 10.41
12:53 pm 12:53 Cloudy with Strong Thunderstorms N/A N/A N/A NNW 8 13 N/A 0 0 0.89 22.61
1:07 pm 13:07 Cloudy with Thunderstorms N/A N/A N/A Calm N/A 1 2 0.25 6.35
1:09 pm 13:09 Cloudy with Thunderstorms N/A N/A N/A Calm N/A 4 6 0.25 6.35
1:18 pm 13:18 Mostly Cloudy with Nearby Thunderstorms N/A N/A N/A Calm N/A 10 16 0.25 6.35
1:26 pm 13:26 Partly Cloudy N/A N/A N/A Calm N/A 10 16 0.25 6.35
1:53 pm 13:53 Partly Cloudy N/A N/A N/A S 3 6 N/A 10 16 0.25 6.35
2:36 pm 14:36 Mostly Cloudy N/A N/A N/A S 3 6 N/A 10 16 0.00 0.00
2:53 pm 14:53 Mostly Cloudy N/A N/A N/A WSW 6 9 N/A 10 16 0.00 0.00
3:00 pm 15:00 Partly Cloudy N/A N/A N/A WSW 3 6 N/A 9 14 0.00 0.00
3:53 pm 15:53 Mostly Sunny N/A N/A N/A W 8 13 N/A 10 16 0.00 0.00
4:53 pm 16:53 Mostly Sunny N/A N/A N/A SW 9 15 N/A 10 16 0.00 0.00
5:53 pm 17:53 Sunny N/A N/A N/A WSW 7 11 N/A 10 16 0.00 0.00
6:53 pm 18:53 Partly Cloudy N/A N/A N/A SW 12 19 N/A 10 16 0.00 0.00
7:53 pm 19:53 Sunny N/A N/A N/A SSW 7 11 N/A 10 16 0.00 0.00
8:53 pm 20:53 Clear N/A N/A N/A S 3 6 N/A 10 16 0.00 0.00
9:53 pm 21:53 Clear N/A N/A N/A S 3 6 N/A 10 16 0.00 0.00
10:53 pm 22:53 Clear N/A N/A N/A Calm N/A 10 16 0.00 0.00
11:53 pm 23:53 Clear N/A N/A N/A S 7 11 N/A 10 16 0.00 0.00

Powered by AerisWeather